sensor_id;sensor_type;location;lat;lon;timestamp;P1;durP1;ratioP1;P2;durP2;ratioP2
75285;SDS011;63879;46.064;14.532;2022-10-31T07:02:55;71.15;;;25.58;;
75285;SDS011;63879;46.064;14.532;2022-10-31T07:05:25;117.88;;;29.73;;
75285;SDS011;63879;46.064;14.532;2022-10-31T07:07:51;63.28;;;26.63;;
75285;SDS011;63879;46.064;14.532;2022-10-31T07:10:20;51.35;;;23.52;;
75285;SDS011;63879;46.064;14.532;2022-10-31T07:12:46;47.45;;;22.88;;
75285;SDS011;63879;46.064;14.532;2022-10-31T07:15:11;57.17;;;25.42;;
75285;SDS011;63879;46.064;14.532;2022-10-31T07:17:37;121.93;;;25.27;;
75285;SDS011;63879;46.064;14.532;2022-10-31T07:20:02;204.32;;;32.33;;
75285;SDS011;63879;46.064;14.532;2022-10-31T07:22:34;135.15;;;24.10;;
75285;SDS011;63879;46.064;14.532;2022-10-31T07:25:00;140.60;;;25.80;;
75285;SDS011;63879;46.064;14.532;2022-10-31T07:27:35;169.33;;;28.70;;
75285;SDS011;63879;46.064;14.532;2022-10-31T07:30:01;140.50;;;30.80;;
75285;SDS011;63879;46.064;14.532;2022-10-31T07:32:27;168.57;;;28.73;;
75285;SDS011;63879;46.064;14.532;2022-10-31T07:34:52;87.93;;;24.43;;
75285;SDS011;63879;46.064;14.532;2022-10-31T07:37:18;71.10;;;19.63;;
75285;SDS011;63879;46.064;14.532;2022-10-31T07:39:43;107.93;;;19.88;;
75285;SDS011;63879;46.064;14.532;2022-10-31T07:42:09;46.10;;;17.33;;
75285;SDS011;63879;46.064;14.532;2022-10-31T07:44:34;56.33;;;17.80;;
75285;SDS011;63879;46.064;14.532;2022-10-31T07:46:59;87.17;;;22.03;;
75285;SDS011;63879;46.064;14.532;2022-10-31T07:49:30;91.07;;;21.37;;
75285;SDS011;63879;46.064;14.532;2022-10-31T07:51:55;69.43;;;24.77;;
75285;SDS011;63879;46.064;14.532;2022-10-31T07:54:21;177.38;;;38.28;;
75285;SDS011;63879;46.064;14.532;2022-10-31T07:56:46;103.60;;;29.57;;
75285;SDS011;63879;46.064;14.532;2022-10-31T07:59:27;85.43;;;25.98;;
75285;SDS011;63879;46.064;14.532;2022-10-31T08:01:52;51.20;;;20.92;;
75285;SDS011;63879;46.064;14.532;2022-10-31T08:04:18;49.60;;;20.83;;
75285;SDS011;63879;46.064;14.532;2022-10-31T08:06:43;66.35;;;20.83;;
75285;SDS011;63879;46.064;14.532;2022-10-31T08:09:19;65.82;;;20.77;;
75285;SDS011;63879;46.064;14.532;2022-10-31T08:11:44;68.63;;;20.27;;
75285;SDS011;63879;46.064;14.532;2022-10-31T08:14:09;31.87;;;16.70;;
75285;SDS011;63879;46.064;14.532;2022-10-31T08:16:35;38.63;;;17.10;;
75285;SDS011;63879;46.064;14.532;2022-10-31T08:19:00;37.23;;;17.43;;
75285;SDS011;63879;46.064;14.532;2022-10-31T08:21:25;52.13;;;21.15;;
75285;SDS011;63879;46.064;14.532;2022-10-31T08:23:51;33.80;;;16.77;;
75285;SDS011;63879;46.064;14.532;2022-10-31T08:26:16;29.07;;;14.57;;
75285;SDS011;63879;46.064;14.532;2022-10-31T08:28:41;21.93;;;12.43;;
75285;SDS011;63879;46.064;14.532;2022-10-31T08:31:07;21.33;;;12.90;;
75285;SDS011;63879;46.064;14.532;2022-10-31T08:33:32;23.73;;;12.95;;
75285;SDS011;63879;46.064;14.532;2022-10-31T08:35:58;20.60;;;12.27;;
75285;SDS011;63879;46.064;14.532;2022-10-31T08:38:23;26.58;;;13.77;;
75285;SDS011;63879;46.064;14.532;2022-10-31T08:40:49;22.67;;;12.50;;
75285;SDS011;63879;46.064;14.532;2022-10-31T08:43:15;20.70;;;12.85;;
75285;SDS011;63879;46.064;14.532;2022-10-31T08:45:41;20.15;;;12.68;;
75285;SDS011;63879;46.064;14.532;2022-10-31T08:48:12;18.05;;;10.90;;
75285;SDS011;63879;46.064;14.532;2022-10-31T08:50:39;20.50;;;13.02;;
75285;SDS011;63879;46.064;14.532;2022-10-31T08:53:06;26.83;;;14.15;;
75285;SDS011;63879;46.064;14.532;2022-10-31T08:55:34;28.27;;;15.15;;
75285;SDS011;63879;46.064;14.532;2022-10-31T08:58:00;30.40;;;16.52;;
75285;SDS011;63879;46.064;14.532;2022-10-31T09:00:26;28.45;;;16.25;;
75285;SDS011;63879;46.064;14.532;2022-10-31T09:02:58;37.10;;;19.58;;
75285;SDS011;63879;46.064;14.532;2022-10-31T09:05:26;38.83;;;20.95;;
75285;SDS011;63879;46.064;14.532;2022-10-31T09:07:55;30.73;;;16.92;;
75285;SDS011;63879;46.064;14.532;2022-10-31T09:10:22;38.92;;;20.90;;
75285;SDS011;63879;46.064;14.532;2022-10-31T09:12:54;37.80;;;21.65;;
75285;SDS011;63879;46.064;14.532;2022-10-31T09:15:23;39.58;;;20.73;;
75285;SDS011;63879;46.064;14.532;2022-10-31T09:17:48;33.53;;;18.60;;
75285;SDS011;63879;46.064;14.532;2022-10-31T09:20:14;39.58;;;20.48;;
75285;SDS011;63879;46.064;14.532;2022-10-31T09:22:39;37.00;;;19.90;;
75285;SDS011;63879;46.064;14.532;2022-10-31T09:25:05;35.45;;;18.73;;
75285;SDS011;63879;46.064;14.532;2022-10-31T09:27:31;40.88;;;21.15;;
75285;SDS011;63879;46.064;14.532;2022-10-31T09:29:56;36.72;;;20.15;;
75285;SDS011;63879;46.064;14.532;2022-10-31T09:32:21;33.63;;;18.07;;
75285;SDS011;63879;46.064;14.532;2022-10-31T09:34:47;31.10;;;18.33;;
75285;SDS011;63879;46.064;14.532;2022-10-31T09:37:12;32.85;;;17.17;;
75285;SDS011;63879;46.064;14.532;2022-10-31T09:39:37;30.77;;;17.13;;
75285;SDS011;63879;46.064;14.532;2022-10-31T09:42:06;29.33;;;15.67;;
75285;SDS011;63879;46.064;14.532;2022-10-31T09:44:45;22.50;;;13.63;;
75285;SDS011;63879;46.064;14.532;2022-10-31T09:47:24;25.00;;;13.80;;
75285;SDS011;63879;46.064;14.532;2022-10-31T09:52:58;24.27;;;13.65;;
75285;SDS011;63879;46.064;14.532;2022-10-31T09:57:51;18.33;;;12.27;;
75285;SDS011;63879;46.064;14.532;2022-10-31T10:00:19;21.60;;;13.15;;
75285;SDS011;63879;46.064;14.532;2022-10-31T10:05:41;18.15;;;11.55;;
75285;SDS011;63879;46.064;14.532;2022-10-31T10:08:22;17.80;;;12.05;;
75285;SDS011;63879;46.064;14.532;2022-10-31T10:13:55;22.52;;;12.43;;
75285;SDS011;63879;46.064;14.532;2022-10-31T10:19:17;17.48;;;10.57;;
75285;SDS011;63879;46.064;14.532;2022-10-31T10:22:06;17.83;;;10.40;;
75285;SDS011;63879;46.064;14.532;2022-10-31T10:27:03;15.57;;;9.60;;
75285;SDS011;63879;46.064;14.532;2022-10-31T10:29:39;17.75;;;9.23;;
75285;SDS011;63879;46.064;14.532;2022-10-31T10:32:13;16.95;;;8.20;;
75285;SDS011;63879;46.064;14.532;2022-10-31T10:34:56;16.85;;;8.40;;
75285;SDS011;63879;46.064;14.532;2022-10-31T10:37:31;10.02;;;7.00;;
75285;SDS011;63879;46.064;14.532;2022-10-31T10:40:13;11.68;;;7.13;;
75285;SDS011;63879;46.064;14.532;2022-10-31T10:42:50;10.73;;;7.20;;
75285;SDS011;63879;46.064;14.532;2022-10-31T10:45:50;10.82;;;6.80;;
75285;SDS011;63879;46.064;14.532;2022-10-31T10:51:10;12.18;;;6.10;;
75285;SDS011;63879;46.064;14.532;2022-10-31T10:59:45;10.65;;;6.68;;
75285;SDS011;63879;46.064;14.532;2022-10-31T11:02:21;11.43;;;6.40;;
75285;SDS011;63879;46.064;14.532;2022-10-31T11:04:51;10.98;;;7.13;;
75285;SDS011;63879;46.064;14.532;2022-10-31T11:07:19;10.55;;;6.70;;
75285;SDS011;63879;46.064;14.532;2022-10-31T11:09:44;12.40;;;6.97;;
75285;SDS011;63879;46.064;14.532;2022-10-31T11:12:21;13.95;;;7.50;;
75285;SDS011;63879;46.064;14.532;2022-10-31T11:14:58;11.32;;;7.20;;
75285;SDS011;63879;46.064;14.532;2022-10-31T11:17:38;10.63;;;7.03;;
75285;SDS011;63879;46.064;14.532;2022-10-31T11:22:42;16.73;;;9.40;;
75285;SDS011;63879;46.064;14.532;2022-10-31T11:25:26;13.55;;;9.25;;
75285;SDS011;63879;46.064;14.532;2022-10-31T11:28:05;15.18;;;9.05;;
75285;SDS011;63879;46.064;14.532;2022-10-31T11:33:39;15.30;;;9.07;;
75285;SDS011;63879;46.064;14.532;2022-10-31T11:38:48;15.98;;;8.98;;
75285;SDS011;63879;46.064;14.532;2022-10-31T11:41:15;15.65;;;9.52;;
75285;SDS011;63879;46.064;14.532;2022-10-31T11:46:48;13.35;;;7.90;;
75285;SDS011;63879;46.064;14.532;2022-10-31T11:49:17;11.40;;;7.93;;
75285;SDS011;63879;46.064;14.532;2022-10-31T11:51:49;14.88;;;7.75;;
75285;SDS011;63879;46.064;14.532;2022-10-31T11:54:20;10.02;;;7.25;;
75285;SDS011;63879;46.064;14.532;2022-10-31T11:57:21;13.18;;;7.05;;
75285;SDS011;63879;46.064;14.532;2022-10-31T11:59:54;14.63;;;7.65;;
75285;SDS011;63879;46.064;14.532;2022-10-31T12:02:22;8.95;;;5.88;;
75285;SDS011;63879;46.064;14.532;2022-10-31T12:05:29;9.77;;;6.00;;
75285;SDS011;63879;46.064;14.532;2022-10-31T12:07:42;9.65;;;5.15;;
75285;SDS011;63879;46.064;14.532;2022-10-31T12:10:11;10.75;;;5.88;;
75285;SDS011;63879;46.064;14.532;2022-10-31T12:29:25;8.27;;;5.18;;
75285;SDS011;63879;46.064;14.532;2022-10-31T12:32:15;9.18;;;5.65;;
75285;SDS011;63879;46.064;14.532;2022-10-31T12:34:56;8.52;;;5.00;;
75285;SDS011;63879;46.064;14.532;2022-10-31T12:37:43;7.65;;;4.90;;
75285;SDS011;63879;46.064;14.532;2022-10-31T12:59:36;12.80;;;5.63;;
75285;SDS011;63879;46.064;14.532;2022-10-31T13:02:18;10.10;;;6.93;;
75285;SDS011;63879;46.064;14.532;2022-10-31T13:10:02;15.88;;;6.78;;
75285;SDS011;63879;46.064;14.532;2022-10-31T13:12:32;11.40;;;6.95;;
75285;SDS011;63879;46.064;14.532;2022-10-31T13:14:59;12.45;;;6.40;;
75285;SDS011;63879;46.064;14.532;2022-10-31T13:17:45;12.88;;;6.13;;
75285;SDS011;63879;46.064;14.532;2022-10-31T13:23:26;11.00;;;5.95;;
75285;SDS011;63879;46.064;14.532;2022-10-31T13:25:56;11.65;;;6.18;;
75285;SDS011;63879;46.064;14.532;2022-10-31T13:28:37;13.95;;;6.47;;
75285;SDS011;63879;46.064;14.532;2022-10-31T13:31:04;12.38;;;6.10;;
75285;SDS011;63879;46.064;14.532;2022-10-31T13:33:50;13.07;;;6.73;;
75285;SDS011;63879;46.064;14.532;2022-10-31T13:38:59;13.15;;;5.40;;
75285;SDS011;63879;46.064;14.532;2022-10-31T13:44:36;12.75;;;6.20;;
75285;SDS011;63879;46.064;14.532;2022-10-31T13:47:27;12.63;;;5.30;;
75285;SDS011;63879;46.064;14.532;2022-10-31T13:50:03;12.73;;;4.88;;
75285;SDS011;63879;46.064;14.532;2022-10-31T13:52:30;11.95;;;5.03;;
75285;SDS011;63879;46.064;14.532;2022-10-31T13:54:56;11.13;;;5.28;;
75285;SDS011;63879;46.064;14.532;2022-10-31T13:57:43;11.00;;;4.63;;
75285;SDS011;63879;46.064;14.532;2022-10-31T14:00:41;9.25;;;4.70;;
75285;SDS011;63879;46.064;14.532;2022-10-31T14:03:01;11.55;;;4.97;;
75285;SDS011;63879;46.064;14.532;2022-10-31T14:05:33;9.07;;;4.63;;
75285;SDS011;63879;46.064;14.532;2022-10-31T14:08:02;13.20;;;5.15;;
75285;SDS011;63879;46.064;14.532;2022-10-31T14:10:33;8.52;;;4.70;;
75285;SDS011;63879;46.064;14.532;2022-10-31T14:18:36;8.48;;;4.25;;
75285;SDS011;63879;46.064;14.532;2022-10-31T14:23:49;10.77;;;4.85;;
75285;SDS011;63879;46.064;14.532;2022-10-31T14:26:18;12.45;;;4.22;;
75285;SDS011;63879;46.064;14.532;2022-10-31T14:28:44;12.25;;;4.45;;
75285;SDS011;63879;46.064;14.532;2022-10-31T14:31:26;12.65;;;5.40;;
75285;SDS011;63879;46.064;14.532;2022-10-31T14:34:21;11.68;;;4.97;;
75285;SDS011;63879;46.064;14.532;2022-10-31T14:53:29;13.73;;;5.10;;
75285;SDS011;63879;46.064;14.532;2022-10-31T14:56:01;11.25;;;4.25;;
75285;SDS011;63879;46.064;14.532;2022-10-31T15:00:59;9.95;;;5.40;;
75285;SDS011;63879;46.064;14.532;2022-10-31T15:05:56;12.15;;;5.88;;
75285;SDS011;63879;46.064;14.532;2022-10-31T15:08:35;10.00;;;5.80;;
75285;SDS011;63879;46.064;14.532;2022-10-31T15:11:09;12.60;;;5.93;;
75285;SDS011;63879;46.064;14.532;2022-10-31T15:13:40;12.02;;;5.85;;
75285;SDS011;63879;46.064;14.532;2022-10-31T15:16:17;10.43;;;5.75;;
75285;SDS011;63879;46.064;14.532;2022-10-31T15:19:06;12.90;;;5.93;;
75285;SDS011;63879;46.064;14.532;2022-10-31T15:21:31;11.25;;;5.70;;
75285;SDS011;63879;46.064;14.532;2022-10-31T15:23:57;11.15;;;5.63;;
75285;SDS011;63879;46.064;14.532;2022-10-31T15:26:26;19.55;;;6.32;;
75285;SDS011;63879;46.064;14.532;2022-10-31T15:29:00;10.70;;;6.40;;
75285;SDS011;63879;46.064;14.532;2022-10-31T15:31:52;11.18;;;5.43;;
75285;SDS011;63879;46.064;14.532;2022-10-31T15:34:26;11.48;;;6.60;;
75285;SDS011;63879;46.064;14.532;2022-10-31T15:37:03;12.32;;;6.10;;
75285;SDS011;63879;46.064;14.532;2022-10-31T15:39:28;11.10;;;6.38;;
75285;SDS011;63879;46.064;14.532;2022-10-31T15:41:55;13.63;;;6.50;;
75285;SDS011;63879;46.064;14.532;2022-10-31T15:46:55;11.13;;;6.55;;
75285;SDS011;63879;46.064;14.532;2022-10-31T15:52:03;12.20;;;7.10;;
75285;SDS011;63879;46.064;14.532;2022-10-31T15:54:30;13.27;;;6.00;;
75285;SDS011;63879;46.064;14.532;2022-10-31T15:56:55;10.40;;;6.17;;
75285;SDS011;63879;46.064;14.532;2022-10-31T15:59:22;14.02;;;6.88;;
75285;SDS011;63879;46.064;14.532;2022-10-31T16:02:00;10.68;;;6.70;;
75285;SDS011;63879;46.064;14.532;2022-10-31T16:04:27;9.88;;;6.60;;
75285;SDS011;63879;46.064;14.532;2022-10-31T16:07:00;13.65;;;6.95;;
75285;SDS011;63879;46.064;14.532;2022-10-31T16:09:48;12.52;;;7.28;;
75285;SDS011;63879;46.064;14.532;2022-10-31T16:12:21;13.00;;;6.85;;
75285;SDS011;63879;46.064;14.532;2022-10-31T16:14:50;15.70;;;8.75;;
75285;SDS011;63879;46.064;14.532;2022-10-31T16:17:16;15.25;;;9.15;;
75285;SDS011;63879;46.064;14.532;2022-10-31T16:22:14;14.35;;;8.15;;
75285;SDS011;63879;46.064;14.532;2022-10-31T16:24:53;16.15;;;9.15;;
75285;SDS011;63879;46.064;14.532;2022-10-31T16:30:01;15.35;;;8.05;;
75285;SDS011;63879;46.064;14.532;2022-10-31T16:32:35;14.35;;;7.85;;
75285;SDS011;63879;46.064;14.532;2022-10-31T16:35:33;13.05;;;7.97;;
75285;SDS011;63879;46.064;14.532;2022-10-31T16:37:59;14.95;;;7.68;;
75285;SDS011;63879;46.064;14.532;2022-10-31T16:40:25;15.10;;;7.50;;
75285;SDS011;63879;46.064;14.532;2022-10-31T16:42:50;17.08;;;8.07;;
75285;SDS011;63879;46.064;14.532;2022-10-31T16:45:20;13.40;;;8.23;;
75285;SDS011;63879;46.064;14.532;2022-10-31T16:47:47;16.65;;;7.85;;
75285;SDS011;63879;46.064;14.532;2022-10-31T16:50:20;15.68;;;8.77;;
75285;SDS011;63879;46.064;14.532;2022-10-31T16:52:46;17.17;;;9.20;;
75285;SDS011;63879;46.064;14.532;2022-10-31T16:55:12;15.77;;;9.10;;
75285;SDS011;63879;46.064;14.532;2022-10-31T16:57:39;16.13;;;9.15;;
75285;SDS011;63879;46.064;14.532;2022-10-31T17:00:08;16.25;;;9.30;;
75285;SDS011;63879;46.064;14.532;2022-10-31T17:02:39;16.38;;;9.52;;
75285;SDS011;63879;46.064;14.532;2022-10-31T17:05:04;17.45;;;10.02;;
75285;SDS011;63879;46.064;14.532;2022-10-31T17:07:30;14.73;;;10.40;;
75285;SDS011;63879;46.064;14.532;2022-10-31T17:09:55;19.43;;;10.07;;
75285;SDS011;63879;46.064;14.532;2022-10-31T17:12:21;21.73;;;11.87;;
75285;SDS011;63879;46.064;14.532;2022-10-31T17:14:48;22.13;;;11.52;;
75285;SDS011;63879;46.064;14.532;2022-10-31T17:17:14;18.60;;;11.63;;
75285;SDS011;63879;46.064;14.532;2022-10-31T17:19:40;14.87;;;10.10;;
75285;SDS011;63879;46.064;14.532;2022-10-31T17:22:05;20.05;;;10.55;;
75285;SDS011;63879;46.064;14.532;2022-10-31T17:24:30;17.00;;;10.25;;
75285;SDS011;63879;46.064;14.532;2022-10-31T17:26:56;19.60;;;10.93;;
75285;SDS011;63879;46.064;14.532;2022-10-31T17:29:21;17.30;;;11.23;;
75285;SDS011;63879;46.064;14.532;2022-10-31T17:31:47;21.48;;;11.18;;
75285;SDS011;63879;46.064;14.532;2022-10-31T17:34:13;18.05;;;11.00;;
75285;SDS011;63879;46.064;14.532;2022-10-31T17:36:38;19.65;;;12.60;;
75285;SDS011;63879;46.064;14.532;2022-10-31T17:39:04;18.42;;;10.80;;
75285;SDS011;63879;46.064;14.532;2022-10-31T17:41:31;17.50;;;11.23;;
75285;SDS011;63879;46.064;14.532;2022-10-31T17:43:57;18.98;;;10.15;;
75285;SDS011;63879;46.064;14.532;2022-10-31T17:46:23;20.95;;;11.63;;
75285;SDS011;63879;46.064;14.532;2022-10-31T17:51:16;19.83;;;10.63;;
75285;SDS011;63879;46.064;14.532;2022-10-31T17:53:42;18.77;;;10.15;;
75285;SDS011;63879;46.064;14.532;2022-10-31T17:56:07;21.20;;;9.60;;
75285;SDS011;63879;46.064;14.532;2022-10-31T17:58:34;17.90;;;10.25;;
75285;SDS011;63879;46.064;14.532;2022-10-31T18:01:00;18.20;;;9.55;;
75285;SDS011;63879;46.064;14.532;2022-10-31T18:03:34;18.15;;;10.82;;
75285;SDS011;63879;46.064;14.532;2022-10-31T18:06:00;20.70;;;11.25;;
75285;SDS011;63879;46.064;14.532;2022-10-31T18:08:26;18.05;;;10.25;;
75285;SDS011;63879;46.064;14.532;2022-10-31T18:10:52;20.88;;;11.02;;
75285;SDS011;63879;46.064;14.532;2022-10-31T18:13:18;16.90;;;10.15;;
75285;SDS011;63879;46.064;14.532;2022-10-31T18:15:43;22.10;;;11.27;;
75285;SDS011;63879;46.064;14.532;2022-10-31T18:18:09;21.87;;;11.67;;
75285;SDS011;63879;46.064;14.532;2022-10-31T18:20:34;19.48;;;10.63;;
75285;SDS011;63879;46.064;14.532;2022-10-31T18:22:59;17.80;;;11.37;;
75285;SDS011;63879;46.064;14.532;2022-10-31T18:25:25;22.40;;;11.00;;
75285;SDS011;63879;46.064;14.532;2022-10-31T18:27:50;17.73;;;10.57;;
75285;SDS011;63879;46.064;14.532;2022-10-31T18:30:15;16.70;;;10.73;;
75285;SDS011;63879;46.064;14.532;2022-10-31T18:32:42;21.85;;;11.13;;
75285;SDS011;63879;46.064;14.532;2022-10-31T18:35:08;19.13;;;11.57;;
75285;SDS011;63879;46.064;14.532;2022-10-31T18:37:36;24.00;;;12.30;;
75285;SDS011;63879;46.064;14.532;2022-10-31T18:40:01;18.83;;;10.80;;
75285;SDS011;63879;46.064;14.532;2022-10-31T18:42:28;18.63;;;11.27;;
75285;SDS011;63879;46.064;14.532;2022-10-31T18:44:53;17.58;;;10.48;;
75285;SDS011;63879;46.064;14.532;2022-10-31T18:47:19;21.73;;;11.82;;
75285;SDS011;63879;46.064;14.532;2022-10-31T18:49:44;20.15;;;10.88;;
75285;SDS011;63879;46.064;14.532;2022-10-31T18:52:10;21.83;;;11.60;;
75285;SDS011;63879;46.064;14.532;2022-10-31T18:54:35;18.15;;;11.82;;
75285;SDS011;63879;46.064;14.532;2022-10-31T18:57:00;20.37;;;11.87;;
75285;SDS011;63879;46.064;14.532;2022-10-31T18:59:26;18.83;;;11.80;;
75285;SDS011;63879;46.064;14.532;2022-10-31T19:01:51;20.08;;;12.02;;
75285;SDS011;63879;46.064;14.532;2022-10-31T19:04:17;21.20;;;12.33;;
75285;SDS011;63879;46.064;14.532;2022-10-31T19:06:42;22.02;;;11.93;;
75285;SDS011;63879;46.064;14.532;2022-10-31T19:09:07;20.77;;;12.75;;
75285;SDS011;63879;46.064;14.532;2022-10-31T19:11:34;25.33;;;14.32;;
75285;SDS011;63879;46.064;14.532;2022-10-31T19:14:00;22.52;;;13.05;;
75285;SDS011;63879;46.064;14.532;2022-10-31T19:16:25;23.80;;;12.63;;
75285;SDS011;63879;46.064;14.532;2022-10-31T19:18:55;21.23;;;12.25;;
75285;SDS011;63879;46.064;14.532;2022-10-31T19:21:21;19.80;;;12.40;;
75285;SDS011;63879;46.064;14.532;2022-10-31T19:23:47;21.73;;;13.02;;
75285;SDS011;63879;46.064;14.532;2022-10-31T19:26:12;23.40;;;13.77;;
75285;SDS011;63879;46.064;14.532;2022-10-31T19:28:39;21.67;;;12.93;;
75285;SDS011;63879;46.064;14.532;2022-10-31T19:31:05;21.42;;;13.35;;
75285;SDS011;63879;46.064;14.532;2022-10-31T19:33:31;26.63;;;15.50;;
75285;SDS011;63879;46.064;14.532;2022-10-31T19:35:58;23.17;;;14.07;;
75285;SDS011;63879;46.064;14.532;2022-10-31T19:38:24;26.75;;;14.02;;
75285;SDS011;63879;46.064;14.532;2022-10-31T19:40:54;21.58;;;13.45;;
75285;SDS011;63879;46.064;14.532;2022-10-31T19:43:23;21.38;;;12.68;;
75285;SDS011;63879;46.064;14.532;2022-10-31T19:45:55;23.48;;;11.93;;
75285;SDS011;63879;46.064;14.532;2022-10-31T19:48:22;20.77;;;12.98;;
75285;SDS011;63879;46.064;14.532;2022-10-31T19:50:48;23.52;;;12.88;;
75285;SDS011;63879;46.064;14.532;2022-10-31T19:53:13;23.75;;;13.13;;
75285;SDS011;63879;46.064;14.532;2022-10-31T19:55:39;19.20;;;11.97;;
75285;SDS011;63879;46.064;14.532;2022-10-31T19:58:05;20.17;;;12.18;;
75285;SDS011;63879;46.064;14.532;2022-10-31T20:00:30;21.35;;;11.65;;
75285;SDS011;63879;46.064;14.532;2022-10-31T20:02:55;21.37;;;12.33;;
75285;SDS011;63879;46.064;14.532;2022-10-31T20:05:21;19.83;;;11.80;;
75285;SDS011;63879;46.064;14.532;2022-10-31T20:07:46;20.42;;;11.80;;
75285;SDS011;63879;46.064;14.532;2022-10-31T20:10:12;18.70;;;11.57;;
75285;SDS011;63879;46.064;14.532;2022-10-31T20:12:37;18.58;;;11.85;;
75285;SDS011;63879;46.064;14.532;2022-10-31T20:15:03;26.83;;;13.20;;
75285;SDS011;63879;46.064;14.532;2022-10-31T20:17:28;20.60;;;10.93;;
75285;SDS011;63879;46.064;14.532;2022-10-31T20:19:54;21.77;;;12.83;;
75285;SDS011;63879;46.064;14.532;2022-10-31T20:22:19;21.23;;;13.02;;
75285;SDS011;63879;46.064;14.532;2022-10-31T20:24:44;26.83;;;14.17;;
75285;SDS011;63879;46.064;14.532;2022-10-31T20:27:10;26.67;;;16.27;;
75285;SDS011;63879;46.064;14.532;2022-10-31T20:29:35;24.93;;;13.80;;
75285;SDS011;63879;46.064;14.532;2022-10-31T20:32:01;27.48;;;15.85;;
75285;SDS011;63879;46.064;14.532;2022-10-31T20:34:26;27.53;;;16.60;;
75285;SDS011;63879;46.064;14.532;2022-10-31T20:36:51;20.30;;;13.80;;
75285;SDS011;63879;46.064;14.532;2022-10-31T20:39:17;20.80;;;12.77;;
75285;SDS011;63879;46.064;14.532;2022-10-31T20:41:42;24.23;;;15.50;;
75285;SDS011;63879;46.064;14.532;2022-10-31T20:44:08;25.57;;;14.70;;
75285;SDS011;63879;46.064;14.532;2022-10-31T20:46:33;23.45;;;14.20;;
75285;SDS011;63879;46.064;14.532;2022-10-31T20:48:58;22.45;;;14.10;;
75285;SDS011;63879;46.064;14.532;2022-10-31T20:51:25;21.20;;;13.57;;
75285;SDS011;63879;46.064;14.532;2022-10-31T20:53:52;22.15;;;12.82;;
75285;SDS011;63879;46.064;14.532;2022-10-31T20:56:19;20.83;;;11.95;;
75285;SDS011;63879;46.064;14.532;2022-10-31T20:58:47;19.63;;;12.23;;
75285;SDS011;63879;46.064;14.532;2022-10-31T21:01:34;21.80;;;12.68;;
75285;SDS011;63879;46.064;14.532;2022-10-31T21:04:00;21.23;;;12.23;;
75285;SDS011;63879;46.064;14.532;2022-10-31T21:06:26;23.63;;;12.55;;
75285;SDS011;63879;46.064;14.532;2022-10-31T21:08:52;22.13;;;11.57;;
75285;SDS011;63879;46.064;14.532;2022-10-31T21:11:18;23.65;;;12.23;;
75285;SDS011;63879;46.064;14.532;2022-10-31T21:13:45;19.50;;;11.20;;
75285;SDS011;63879;46.064;14.532;2022-10-31T21:16:12;24.05;;;12.43;;
75285;SDS011;63879;46.064;14.532;2022-10-31T21:18:40;21.55;;;10.85;;
75285;SDS011;63879;46.064;14.532;2022-10-31T21:21:07;19.20;;;12.55;;
75285;SDS011;63879;46.064;14.532;2022-10-31T21:23:33;24.17;;;13.13;;
75285;SDS011;63879;46.064;14.532;2022-10-31T21:26:02;24.05;;;14.27;;
75285;SDS011;63879;46.064;14.532;2022-10-31T21:28:29;19.08;;;13.30;;
75285;SDS011;63879;46.064;14.532;2022-10-31T21:30:54;17.83;;;13.33;;
75285;SDS011;63879;46.064;14.532;2022-10-31T21:33:19;22.57;;;12.47;;
75285;SDS011;63879;46.064;14.532;2022-10-31T21:35:48;25.37;;;12.53;;
75285;SDS011;63879;46.064;14.532;2022-10-31T21:38:15;22.90;;;12.23;;
75285;SDS011;63879;46.064;14.532;2022-10-31T21:40:40;18.27;;;11.60;;
75285;SDS011;63879;46.064;14.532;2022-10-31T21:43:05;18.20;;;10.87;;
75285;SDS011;63879;46.064;14.532;2022-10-31T21:45:31;20.30;;;11.37;;
75285;SDS011;63879;46.064;14.532;2022-10-31T21:47:56;17.20;;;10.50;;
75285;SDS011;63879;46.064;14.532;2022-10-31T21:50:21;22.55;;;11.95;;
75285;SDS011;63879;46.064;14.532;2022-10-31T21:52:47;18.52;;;11.20;;
75285;SDS011;63879;46.064;14.532;2022-10-31T21:55:12;16.80;;;10.63;;
75285;SDS011;63879;46.064;14.532;2022-10-31T21:57:40;18.60;;;10.48;;
75285;SDS011;63879;46.064;14.532;2022-10-31T22:00:06;16.83;;;9.90;;
